sensor_id;sensor_type;location;lat;lon;timestamp;pressure;altitude;pressure_sealevel;temperature;humidity
16664;BME280;8445;51.270;9.434;2023-06-14T00:00:17;99379.59;;;25.85;23.41
16664;BME280;8445;51.270;9.434;2023-06-14T00:02:42;99384.22;;;25.84;23.47
16664;BME280;8445;51.270;9.434;2023-06-14T00:05:08;99385.47;;;25.82;24.00
16664;BME280;8445;51.270;9.434;2023-06-14T00:07:38;99388.84;;;25.77;25.45
16664;BME280;8445;51.270;9.434;2023-06-14T00:10:08;99385.94;;;25.65;24.40
16664;BME280;8445;51.270;9.434;2023-06-14T00:12:34;99382.66;;;25.56;23.71
16664;BME280;8445;51.270;9.434;2023-06-14T00:15:00;99381.47;;;25.45;23.74
16664;BME280;8445;51.270;9.434;2023-06-14T00:17:27;99389.44;;;25.20;24.25
16664;BME280;8445;51.270;9.434;2023-06-14T00:19:58;99391.72;;;25.23;26.19
16664;BME280;8445;51.270;9.434;2023-06-14T00:22:24;99396.53;;;25.08;24.54
16664;BME280;8445;51.270;9.434;2023-06-14T00:24:52;99394.00;;;25.26;25.88
16664;BME280;8445;51.270;9.434;2023-06-14T00:27:18;99395.44;;;25.29;23.95
16664;BME280;8445;51.270;9.434;2023-06-14T00:29:43;99390.88;;;25.23;24.43
16664;BME280;8445;51.270;9.434;2023-06-14T00:32:09;99387.81;;;25.06;24.46
16664;BME280;8445;51.270;9.434;2023-06-14T00:34:34;99394.09;;;24.39;26.37
16664;BME280;8445;51.270;9.434;2023-06-14T00:37:00;99396.97;;;25.05;24.51
16664;BME280;8445;51.270;9.434;2023-06-14T00:39:26;99392.84;;;24.55;25.84
16664;BME280;8445;51.270;9.434;2023-06-14T00:41:51;99389.06;;;24.29;27.67
16664;BME280;8445;51.270;9.434;2023-06-14T00:44:17;99388.84;;;24.24;27.34
16664;BME280;8445;51.270;9.434;2023-06-14T00:46:44;99393.63;;;25.02;25.30
16664;BME280;8445;51.270;9.434;2023-06-14T00:49:12;99384.50;;;24.77;27.36
16664;BME280;8445;51.270;9.434;2023-06-14T00:51:38;99388.03;;;24.97;26.25
16664;BME280;8445;51.270;9.434;2023-06-14T00:54:04;99394.13;;;24.73;26.12
16664;BME280;8445;51.270;9.434;2023-06-14T00:56:30;99388.41;;;25.14;24.56
16664;BME280;8445;51.270;9.434;2023-06-14T00:58:56;99388.69;;;24.73;25.54
16664;BME280;8445;51.270;9.434;2023-06-14T01:01:21;99396.16;;;24.70;26.91
16664;BME280;8445;51.270;9.434;2023-06-14T01:03:47;99393.03;;;24.47;26.57
16664;BME280;8445;51.270;9.434;2023-06-14T01:06:23;99393.25;;;24.65;28.10
16664;BME280;8445;51.270;9.434;2023-06-14T01:09:16;99400.88;;;24.15;30.86
16664;BME280;8445;51.270;9.434;2023-06-14T01:12:08;99403.81;;;25.07;29.36
16664;BME280;8445;51.270;9.434;2023-06-14T01:14:37;99397.00;;;24.78;25.98
16664;BME280;8445;51.270;9.434;2023-06-14T01:17:04;99397.16;;;24.16;28.55
16664;BME280;8445;51.270;9.434;2023-06-14T01:19:30;99401.16;;;24.74;25.08
16664;BME280;8445;51.270;9.434;2023-06-14T01:22:00;99400.50;;;24.98;24.99
16664;BME280;8445;51.270;9.434;2023-06-14T01:24:26;99402.59;;;24.36;26.36
16664;BME280;8445;51.270;9.434;2023-06-14T01:26:55;99403.44;;;24.77;25.75
16664;BME280;8445;51.270;9.434;2023-06-14T01:29:27;99407.41;;;24.81;25.18
16664;BME280;8445;51.270;9.434;2023-06-14T01:31:58;99404.06;;;24.52;25.66
16664;BME280;8445;51.270;9.434;2023-06-14T01:34:24;99401.56;;;24.50;25.71
16664;BME280;8445;51.270;9.434;2023-06-14T01:36:52;99403.59;;;24.15;26.25
16664;BME280;8445;51.270;9.434;2023-06-14T01:39:20;99397.78;;;24.18;27.51
16664;BME280;8445;51.270;9.434;2023-06-14T01:41:47;99397.25;;;23.74;26.88
16664;BME280;8445;51.270;9.434;2023-06-14T01:44:15;99392.91;;;23.86;25.99
16664;BME280;8445;51.270;9.434;2023-06-14T01:46:41;99401.50;;;24.10;25.81
16664;BME280;8445;51.270;9.434;2023-06-14T01:49:07;99411.50;;;24.09;26.25
16664;BME280;8445;51.270;9.434;2023-06-14T01:51:33;99405.00;;;23.97;25.67
16664;BME280;8445;51.270;9.434;2023-06-14T01:53:59;99397.44;;;23.72;26.10
16664;BME280;8445;51.270;9.434;2023-06-14T01:56:25;99410.00;;;23.45;26.92
16664;BME280;8445;51.270;9.434;2023-06-14T01:58:51;99402.44;;;23.33;26.45
16664;BME280;8445;51.270;9.434;2023-06-14T02:01:17;99403.19;;;23.56;26.12
16664;BME280;8445;51.270;9.434;2023-06-14T02:03:44;99411.00;;;23.37;27.68
16664;BME280;8445;51.270;9.434;2023-06-14T02:06:10;99404.50;;;23.66;26.46
16664;BME280;8445;51.270;9.434;2023-06-14T02:08:36;99398.50;;;23.78;26.31
16664;BME280;8445;51.270;9.434;2023-06-14T02:11:01;99397.25;;;23.74;26.12
16664;BME280;8445;51.270;9.434;2023-06-14T02:13:26;99395.97;;;23.69;26.00
16664;BME280;8445;51.270;9.434;2023-06-14T02:15:52;99401.34;;;23.63;25.62
16664;BME280;8445;51.270;9.434;2023-06-14T02:18:20;99398.31;;;23.31;26.31
16664;BME280;8445;51.270;9.434;2023-06-14T02:20:47;99402.69;;;22.75;27.94
16664;BME280;8445;51.270;9.434;2023-06-14T02:23:12;99404.03;;;23.21;26.62
16664;BME280;8445;51.270;9.434;2023-06-14T02:25:38;99395.75;;;23.22;28.41
16664;BME280;8445;51.270;9.434;2023-06-14T02:28:06;99409.25;;;23.22;26.21
16664;BME280;8445;51.270;9.434;2023-06-14T02:30:32;99407.03;;;23.33;27.99
16664;BME280;8445;51.270;9.434;2023-06-14T02:32:57;99409.13;;;23.09;27.12
16664;BME280;8445;51.270;9.434;2023-06-14T02:35:24;99412.63;;;23.03;28.02
16664;BME280;8445;51.270;9.434;2023-06-14T02:37:52;99412.84;;;23.30;26.92
16664;BME280;8445;51.270;9.434;2023-06-14T02:40:18;99416.84;;;23.12;26.92
16664;BME280;8445;51.270;9.434;2023-06-14T02:42:44;99408.44;;;22.93;26.79
16664;BME280;8445;51.270;9.434;2023-06-14T02:45:09;99416.44;;;22.80;27.75
16664;BME280;8445;51.270;9.434;2023-06-14T02:47:35;99421.47;;;22.90;27.37
16664;BME280;8445;51.270;9.434;2023-06-14T02:50:00;99414.91;;;22.71;28.59
16664;BME280;8445;51.270;9.434;2023-06-14T02:52:26;99420.72;;;22.09;29.95
16664;BME280;8445;51.270;9.434;2023-06-14T02:54:52;99418.13;;;21.49;32.66
16664;BME280;8445;51.270;9.434;2023-06-14T02:57:17;99424.91;;;22.12;30.76
16664;BME280;8445;51.270;9.434;2023-06-14T02:59:43;99427.00;;;21.95;30.03
16664;BME280;8445;51.270;9.434;2023-06-14T03:02:08;99431.31;;;21.74;31.16
16664;BME280;8445;51.270;9.434;2023-06-14T03:04:34;99434.03;;;22.76;28.41
16664;BME280;8445;51.270;9.434;2023-06-14T03:07:06;99426.59;;;22.34;30.33
16664;BME280;8445;51.270;9.434;2023-06-14T03:09:35;99429.47;;;22.33;29.92
16664;BME280;8445;51.270;9.434;2023-06-14T03:12:03;99433.25;;;22.39;29.06
16664;BME280;8445;51.270;9.434;2023-06-14T03:14:29;99436.91;;;22.31;31.76
16664;BME280;8445;51.270;9.434;2023-06-14T03:16:56;99438.91;;;22.22;29.66
16664;BME280;8445;51.270;9.434;2023-06-14T03:19:23;99436.84;;;22.68;28.75
16664;BME280;8445;51.270;9.434;2023-06-14T03:21:48;99433.09;;;23.19;28.14
16664;BME280;8445;51.270;9.434;2023-06-14T03:24:15;99430.69;;;23.31;27.64
16664;BME280;8445;51.270;9.434;2023-06-14T03:26:45;99437.25;;;23.21;27.46
16664;BME280;8445;51.270;9.434;2023-06-14T03:29:11;99443.53;;;23.00;27.85
16664;BME280;8445;51.270;9.434;2023-06-14T03:31:59;99439.56;;;22.68;33.65
16664;BME280;8445;51.270;9.434;2023-06-14T03:34:27;99440.81;;;22.93;28.50
16664;BME280;8445;51.270;9.434;2023-06-14T03:36:53;99438.63;;;22.82;28.29
16664;BME280;8445;51.270;9.434;2023-06-14T03:39:18;99445.88;;;23.10;28.06
16664;BME280;8445;51.270;9.434;2023-06-14T03:41:45;99447.66;;;22.96;29.99
16664;BME280;8445;51.270;9.434;2023-06-14T03:44:15;99444.94;;;22.46;30.97
16664;BME280;8445;51.270;9.434;2023-06-14T03:46:41;99452.78;;;22.62;29.97
16664;BME280;8445;51.270;9.434;2023-06-14T03:49:06;99448.19;;;23.42;28.29
16664;BME280;8445;51.270;9.434;2023-06-14T03:51:32;99448.94;;;23.29;28.58
16664;BME280;8445;51.270;9.434;2023-06-14T03:54:00;99451.72;;;23.42;28.93
16664;BME280;8445;51.270;9.434;2023-06-14T03:56:26;99471.19;;;23.09;29.64
16664;BME280;8445;51.270;9.434;2023-06-14T03:58:52;99475.53;;;23.03;30.57
16664;BME280;8445;51.270;9.434;2023-06-14T04:01:21;99479.25;;;23.02;29.58
16664;BME280;8445;51.270;9.434;2023-06-14T04:03:50;99470.56;;;23.35;29.26
16664;BME280;8445;51.270;9.434;2023-06-14T04:06:15;99484.03;;;23.07;30.21
16664;BME280;8445;51.270;9.434;2023-06-14T04:08:45;99480.81;;;23.89;28.17
16664;BME280;8445;51.270;9.434;2023-06-14T04:11:11;99489.53;;;23.20;30.99
16664;BME280;8445;51.270;9.434;2023-06-14T04:13:36;99489.41;;;23.64;29.59
16664;BME280;8445;51.270;9.434;2023-06-14T04:16:04;99501.78;;;23.87;29.31
16664;BME280;8445;51.270;9.434;2023-06-14T04:18:33;99507.22;;;23.51;30.93
16664;BME280;8445;51.270;9.434;2023-06-14T04:20:59;99500.22;;;23.64;30.34
16664;BME280;8445;51.270;9.434;2023-06-14T04:23:25;99507.44;;;23.92;31.19
16664;BME280;8445;51.270;9.434;2023-06-14T04:25:53;99516.13;;;23.87;29.16
16664;BME280;8445;51.270;9.434;2023-06-14T04:28:19;99513.63;;;24.34;28.62
16664;BME280;8445;51.270;9.434;2023-06-14T04:30:45;99513.84;;;24.33;29.55
16664;BME280;8445;51.270;9.434;2023-06-14T04:33:13;99515.03;;;24.17;29.09
16664;BME280;8445;51.270;9.434;2023-06-14T04:35:40;99522.31;;;24.23;28.87
16664;BME280;8445;51.270;9.434;2023-06-14T04:38:06;99523.84;;;24.52;28.73
16664;BME280;8445;51.270;9.434;2023-06-14T04:40:35;99525.81;;;24.79;28.97
16664;BME280;8445;51.270;9.434;2023-06-14T04:43:09;99530.78;;;24.68;28.88
16664;BME280;8445;51.270;9.434;2023-06-14T04:45:39;99525.19;;;24.90;28.35
16664;BME280;8445;51.270;9.434;2023-06-14T04:48:06;99518.81;;;24.29;29.43
16664;BME280;8445;51.270;9.434;2023-06-14T04:50:32;99525.16;;;24.63;28.79
16664;BME280;8445;51.270;9.434;2023-06-14T04:52:58;99530.56;;;24.63;29.45
16664;BME280;8445;51.270;9.434;2023-06-14T04:55:25;99531.66;;;24.13;29.88
16664;BME280;8445;51.270;9.434;2023-06-14T04:57:52;99531.66;;;22.93;33.92
16664;BME280;8445;51.270;9.434;2023-06-14T05:00:22;99528.94;;;23.15;33.09
16664;BME280;8445;51.270;9.434;2023-06-14T05:02:48;99525.59;;;23.69;32.07
16664;BME280;8445;51.270;9.434;2023-06-14T05:05:14;99521.25;;;24.10;30.95
16664;BME280;8445;51.270;9.434;2023-06-14T05:07:42;99528.34;;;24.18;30.89
16664;BME280;8445;51.270;9.434;2023-06-14T05:10:08;99524.69;;;24.53;29.74
16664;BME280;8445;51.270;9.434;2023-06-14T05:12:34;99526.97;;;24.49;30.54
16664;BME280;8445;51.270;9.434;2023-06-14T05:14:59;99523.13;;;25.06;29.33
16664;BME280;8445;51.270;9.434;2023-06-14T05:17:26;99528.53;;;24.92;29.77
16664;BME280;8445;51.270;9.434;2023-06-14T05:19:53;99535.59;;;24.73;30.24
16664;BME280;8445;51.270;9.434;2023-06-14T05:22:21;99532.88;;;25.13;29.99
16664;BME280;8445;51.270;9.434;2023-06-14T05:24:47;99535.38;;;25.35;29.17
16664;BME280;8445;51.270;9.434;2023-06-14T05:27:13;99538.53;;;25.25;29.45
16664;BME280;8445;51.270;9.434;2023-06-14T05:29:39;99533.09;;;25.52;29.09
16664;BME280;8445;51.270;9.434;2023-06-14T05:32:05;99531.31;;;25.98;28.55
16664;BME280;8445;51.270;9.434;2023-06-14T05:34:31;99531.97;;;25.87;28.81
16664;BME280;8445;51.270;9.434;2023-06-14T05:36:56;99527.47;;;25.47;29.25
16664;BME280;8445;51.270;9.434;2023-06-14T05:39:22;99539.59;;;26.10;28.06
16664;BME280;8445;51.270;9.434;2023-06-14T05:41:49;99524.13;;;25.38;29.67
16664;BME280;8445;51.270;9.434;2023-06-14T05:44:14;99538.31;;;24.93;31.77
16664;BME280;8445;51.270;9.434;2023-06-14T05:46:40;99535.09;;;25.84;29.68
16664;BME280;8445;51.270;9.434;2023-06-14T05:49:06;99534.75;;;25.53;30.54
16664;BME280;8445;51.270;9.434;2023-06-14T05:51:32;99548.13;;;26.21;29.25
16664;BME280;8445;51.270;9.434;2023-06-14T05:53:57;99542.16;;;25.92;30.41
16664;BME280;8445;51.270;9.434;2023-06-14T05:56:23;99548.44;;;25.85;30.05
16664;BME280;8445;51.270;9.434;2023-06-14T05:58:49;99555.13;;;25.76;30.54
16664;BME280;8445;51.270;9.434;2023-06-14T06:01:14;99553.09;;;25.24;31.54
16664;BME280;8445;51.270;9.434;2023-06-14T06:03:40;99555.38;;;24.80;32.70
16664;BME280;8445;51.270;9.434;2023-06-14T06:06:06;99551.28;;;26.17;30.62
16664;BME280;8445;51.270;9.434;2023-06-14T06:08:33;99557.03;;;25.69;30.96
16664;BME280;8445;51.270;9.434;2023-06-14T06:10:58;99553.25;;;26.42;29.72
16664;BME280;8445;51.270;9.434;2023-06-14T06:13:25;99553.06;;;25.78;31.35
16664;BME280;8445;51.270;9.434;2023-06-14T06:15:51;99552.47;;;26.28;30.05
16664;BME280;8445;51.270;9.434;2023-06-14T06:18:16;99552.53;;;26.15;30.49
16664;BME280;8445;51.270;9.434;2023-06-14T06:20:42;99550.78;;;26.66;29.51
16664;BME280;8445;51.270;9.434;2023-06-14T06:23:09;99554.72;;;26.77;29.30
16664;BME280;8445;51.270;9.434;2023-06-14T06:25:35;99553.94;;;26.24;30.22
16664;BME280;8445;51.270;9.434;2023-06-14T06:28:00;99556.03;;;27.00;29.80
16664;BME280;8445;51.270;9.434;2023-06-14T06:30:26;99563.63;;;27.16;29.30
16664;BME280;8445;51.270;9.434;2023-06-14T06:32:52;99561.50;;;27.44;28.77
16664;BME280;8445;51.270;9.434;2023-06-14T06:35:18;99567.56;;;26.95;29.59
16664;BME280;8445;51.270;9.434;2023-06-14T06:37:44;99569.84;;;26.91;29.71
16664;BME280;8445;51.270;9.434;2023-06-14T06:40:10;99570.78;;;27.61;28.72
16664;BME280;8445;51.270;9.434;2023-06-14T06:42:36;99571.50;;;27.69;28.85
16664;BME280;8445;51.270;9.434;2023-06-14T06:45:04;99577.00;;;26.86;29.89
16664;BME280;8445;51.270;9.434;2023-06-14T06:47:29;99577.47;;;27.33;29.12
16664;BME280;8445;51.270;9.434;2023-06-14T06:49:55;99582.19;;;27.45;29.31
16664;BME280;8445;51.270;9.434;2023-06-14T06:52:20;99575.91;;;26.93;30.11
16664;BME280;8445;51.270;9.434;2023-06-14T06:54:46;99577.84;;;26.41;31.38
16664;BME280;8445;51.270;9.434;2023-06-14T06:57:11;99575.75;;;25.70;32.17
16664;BME280;8445;51.270;9.434;2023-06-14T06:59:37;99587.25;;;26.84;30.39
16664;BME280;8445;51.270;9.434;2023-06-14T07:02:03;99583.69;;;27.41;29.37
16664;BME280;8445;51.270;9.434;2023-06-14T07:04:28;99589.97;;;26.38;31.41
16664;BME280;8445;51.270;9.434;2023-06-14T07:06:54;99590.78;;;26.45;31.14
16664;BME280;8445;51.270;9.434;2023-06-14T07:09:19;99590.25;;;27.58;29.38
16664;BME280;8445;51.270;9.434;2023-06-14T07:11:46;99592.97;;;27.77;29.23
16664;BME280;8445;51.270;9.434;2023-06-14T07:14:12;99598.22;;;28.16;28.88
16664;BME280;8445;51.270;9.434;2023-06-14T07:16:38;99595.31;;;27.73;29.54
16664;BME280;8445;51.270;9.434;2023-06-14T07:19:03;99597.03;;;27.67;29.71
16664;BME280;8445;51.270;9.434;2023-06-14T07:21:30;99597.50;;;28.58;28.53
16664;BME280;8445;51.270;9.434;2023-06-14T07:23:56;99595.88;;;28.68;28.64
16664;BME280;8445;51.270;9.434;2023-06-14T07:26:22;99591.63;;;29.03;27.94
16664;BME280;8445;51.270;9.434;2023-06-14T07:28:48;99594.75;;;28.58;28.53
16664;BME280;8445;51.270;9.434;2023-06-14T07:31:17;99588.09;;;29.14;27.65
16664;BME280;8445;51.270;9.434;2023-06-14T07:33:45;99598.56;;;27.63;29.95
16664;BME280;8445;51.270;9.434;2023-06-14T07:36:10;99593.47;;;28.60;28.48
16664;BME280;8445;51.270;9.434;2023-06-14T07:38:36;99596.63;;;28.08;29.36
16664;BME280;8445;51.270;9.434;2023-06-14T07:41:02;99591.38;;;27.69;29.77
16664;BME280;8445;51.270;9.434;2023-06-14T07:43:27;99598.19;;;27.78;29.92
16664;BME280;8445;51.270;9.434;2023-06-14T07:45:53;99592.00;;;29.07;28.15
16664;BME280;8445;51.270;9.434;2023-06-14T07:48:19;99605.69;;;28.02;29.15
16664;BME280;8445;51.270;9.434;2023-06-14T07:50:44;99598.72;;;27.87;29.38
16664;BME280;8445;51.270;9.434;2023-06-14T07:53:10;99598.75;;;28.24;28.81
16664;BME280;8445;51.270;9.434;2023-06-14T07:55:36;99608.66;;;27.75;29.93
16664;BME280;8445;51.270;9.434;2023-06-14T07:58:06;99602.19;;;27.94;29.66
16664;BME280;8445;51.270;9.434;2023-06-14T08:00:31;99598.84;;;27.55;30.13
16664;BME280;8445;51.270;9.434;2023-06-14T08:02:57;99606.44;;;26.89;30.78
16664;BME280;8445;51.270;9.434;2023-06-14T08:05:24;99608.59;;;28.56;28.85
16664;BME280;8445;51.270;9.434;2023-06-14T08:07:51;99602.97;;;29.42;28.45
16664;BME280;8445;51.270;9.434;2023-06-14T08:10:17;99601.75;;;29.74;28.41
16664;BME280;8445;51.270;9.434;2023-06-14T08:12:43;99601.97;;;29.37;28.53
16664;BME280;8445;51.270;9.434;2023-06-14T08:15:09;99604.84;;;29.78;28.75
16664;BME280;8445;51.270;9.434;2023-06-14T08:17:35;99606.16;;;29.87;28.35
16664;BME280;8445;51.270;9.434;2023-06-14T08:20:00;99601.91;;;30.73;28.19
16664;BME280;8445;51.270;9.434;2023-06-14T08:22:26;99607.66;;;30.88;28.30
16664;BME280;8445;51.270;9.434;2023-06-14T08:24:53;99609.13;;;30.50;26.70
16664;BME280;8445;51.270;9.434;2023-06-14T08:27:20;99605.69;;;31.01;27.27
16664;BME280;8445;51.270;9.434;2023-06-14T08:29:45;99610.66;;;30.58;27.78
16664;BME280;8445;51.270;9.434;2023-06-14T08:32:12;99619.41;;;30.60;27.54
16664;BME280;8445;51.270;9.434;2023-06-14T08:34:37;99616.94;;;29.82;28.39
16664;BME280;8445;51.270;9.434;2023-06-14T08:37:03;99615.44;;;30.97;27.37
16664;BME280;8445;51.270;9.434;2023-06-14T08:39:28;99619.56;;;31.79;26.92
16664;BME280;8445;51.270;9.434;2023-06-14T08:41:54;99617.19;;;31.03;27.71
16664;BME280;8445;51.270;9.434;2023-06-14T08:44:21;99627.38;;;32.32;27.27
16664;BME280;8445;51.270;9.434;2023-06-14T08:46:50;99614.97;;;32.07;27.19
16664;BME280;8445;51.270;9.434;2023-06-14T08:49:19;99610.16;;;32.59;26.95
16664;BME280;8445;51.270;9.434;2023-06-14T08:51:46;99606.34;;;33.53;25.97
16664;BME280;8445;51.270;9.434;2023-06-14T08:54:17;99619.59;;;33.29;25.54
16664;BME280;8445;51.270;9.434;2023-06-14T08:56:46;99609.00;;;32.55;27.89
16664;BME280;8445;51.270;9.434;2023-06-14T08:59:13;99613.41;;;32.34;26.76
16664;BME280;8445;51.270;9.434;2023-06-14T09:01:39;99620.16;;;32.04;26.94
16664;BME280;8445;51.270;9.434;2023-06-14T09:04:05;99613.34;;;32.06;27.88
16664;BME280;8445;51.270;9.434;2023-06-14T09:06:31;99615.63;;;32.15;27.21
16664;BME280;8445;51.270;9.434;2023-06-14T09:08:57;99622.22;;;31.74;27.82
16664;BME280;8445;51.270;9.434;2023-06-14T09:11:23;99614.19;;;32.29;27.32
16664;BME280;8445;51.270;9.434;2023-06-14T09:13:49;99621.28;;;31.52;26.34
16664;BME280;8445;51.270;9.434;2023-06-14T09:16:15;99608.47;;;31.18;26.92
16664;BME280;8445;51.270;9.434;2023-06-14T09:18:43;99622.03;;;31.64;26.38
16664;BME280;8445;51.270;9.434;2023-06-14T09:21:10;99618.84;;;31.04;27.36
16664;BME280;8445;51.270;9.434;2023-06-14T09:23:37;99620.81;;;31.20;26.89
16664;BME280;8445;51.270;9.434;2023-06-14T09:26:11;99629.13;;;30.15;26.34
16664;BME280;8445;51.270;9.434;2023-06-14T09:28:44;99623.69;;;30.56;26.34
16664;BME280;8445;51.270;9.434;2023-06-14T09:31:12;99627.34;;;31.19;26.01
16664;BME280;8445;51.270;9.434;2023-06-14T09:33:37;99625.81;;;30.13;26.84
16664;BME280;8445;51.270;9.434;2023-06-14T09:36:04;99627.34;;;29.97;27.51
16664;BME280;8445;51.270;9.434;2023-06-14T09:38:34;99627.94;;;30.93;26.39
16664;BME280;8445;51.270;9.434;2023-06-14T09:41:03;99625.59;;;32.43;25.19
16664;BME280;8445;51.270;9.434;2023-06-14T09:43:29;99630.56;;;31.33;26.29
16664;BME280;8445;51.270;9.434;2023-06-14T09:45:55;99626.91;;;31.28;26.59
16664;BME280;8445;51.270;9.434;2023-06-14T09:48:21;99626.38;;;30.68;27.45
16664;BME280;8445;51.270;9.434;2023-06-14T09:50:46;99622.22;;;30.24;27.25
16664;BME280;8445;51.270;9.434;2023-06-14T09:53:14;99614.56;;;31.08;26.25
16664;BME280;8445;51.270;9.434;2023-06-14T09:55:41;99625.06;;;32.24;25.29
16664;BME280;8445;51.270;9.434;2023-06-14T09:58:08;99621.19;;;32.42;25.30
16664;BME280;8445;51.270;9.434;2023-06-14T10:00:35;99620.31;;;31.97;24.89
16664;BME280;8445;51.270;9.434;2023-06-14T10:03:18;99618.16;;;32.21;23.95
16664;BME280;8445;51.270;9.434;2023-06-14T10:05:47;99613.13;;;32.13;24.63
16664;BME280;8445;51.270;9.434;2023-06-14T10:08:15;99607.94;;;31.38;25.64
16664;BME280;8445;51.270;9.434;2023-06-14T10:10:43;99613.34;;;33.06;25.41
16664;BME280;8445;51.270;9.434;2023-06-14T10:13:10;99616.56;;;34.11;24.42
16664;BME280;8445;51.270;9.434;2023-06-14T10:15:57;99618.41;;;32.64;23.27
16664;BME280;8445;51.270;9.434;2023-06-14T10:18:40;99618.19;;;33.64;23.66
16664;BME280;8445;51.270;9.434;2023-06-14T10:21:26;99626.09;;;33.55;22.74
16664;BME280;8445;51.270;9.434;2023-06-14T10:23:56;99614.09;;;34.09;23.52
16664;BME280;8445;51.270;9.434;2023-06-14T10:26:26;99607.88;;;33.81;24.22
16664;BME280;8445;51.270;9.434;2023-06-14T10:29:08;99608.97;;;34.34;21.69
16664;BME280;8445;51.270;9.434;2023-06-14T10:31:47;99605.25;;;33.92;22.38
16664;BME280;8445;51.270;9.434;2023-06-14T10:34:30;99612.84;;;33.09;22.80
16664;BME280;8445;51.270;9.434;2023-06-14T10:39:28;99603.34;;;34.71;23.92
16664;BME280;8445;51.270;9.434;2023-06-14T10:41:55;99602.78;;;34.74;24.03
16664;BME280;8445;51.270;9.434;2023-06-14T10:46:47;99591.59;;;34.18;23.76
16664;BME280;8445;51.270;9.434;2023-06-14T10:49:16;99600.59;;;34.71;23.25
16664;BME280;8445;51.270;9.434;2023-06-14T10:51:53;99599.38;;;34.41;23.00
16664;BME280;8445;51.270;9.434;2023-06-14T10:54:22;99603.38;;;35.02;23.25
16664;BME280;8445;51.270;9.434;2023-06-14T10:56:50;99604.69;;;33.19;23.07
16664;BME280;8445;51.270;9.434;2023-06-14T10:59:16;99597.00;;;31.72;25.45
16664;BME280;8445;51.270;9.434;2023-06-14T11:04:20;99596.00;;;31.61;24.33
16664;BME280;8445;51.270;9.434;2023-06-14T11:06:46;99595.91;;;33.17;24.04
16664;BME280;8445;51.270;9.434;2023-06-14T11:12:01;99593.41;;;32.83;23.23
16664;BME280;8445;51.270;9.434;2023-06-14T11:14:30;99589.38;;;32.63;23.48
16664;BME280;8445;51.270;9.434;2023-06-14T11:16:56;99596.66;;;33.07;23.22
16664;BME280;8445;51.270;9.434;2023-06-14T11:19:21;99595.31;;;32.55;23.84
16664;BME280;8445;51.270;9.434;2023-06-14T11:21:48;99594.19;;;32.06;24.15
16664;BME280;8445;51.270;9.434;2023-06-14T11:24:13;99586.91;;;30.58;25.26
16664;BME280;8445;51.270;9.434;2023-06-14T11:26:40;99591.41;;;31.45;24.58
16664;BME280;8445;51.270;9.434;2023-06-14T11:29:05;99583.38;;;32.39;23.40
16664;BME280;8445;51.270;9.434;2023-06-14T11:31:31;99589.50;;;31.85;23.97
16664;BME280;8445;51.270;9.434;2023-06-14T11:33:58;99586.50;;;31.47;24.14
16664;BME280;8445;51.270;9.434;2023-06-14T11:36:30;99585.75;;;32.30;23.15
16664;BME280;8445;51.270;9.434;2023-06-14T11:39:04;99585.91;;;32.01;23.73
16664;BME280;8445;51.270;9.434;2023-06-14T11:41:42;99567.16;;;33.52;22.17
16664;BME280;8445;51.270;9.434;2023-06-14T11:44:08;99576.66;;;32.79;23.19
16664;BME280;8445;51.270;9.434;2023-06-14T11:46:34;99578.75;;;33.70;22.79
16664;BME280;8445;51.270;9.434;2023-06-14T11:49:00;99578.34;;;33.94;22.74
16664;BME280;8445;51.270;9.434;2023-06-14T11:51:29;99574.03;;;33.22;23.65
16664;BME280;8445;51.270;9.434;2023-06-14T11:53:55;99560.84;;;33.57;23.42
16664;BME280;8445;51.270;9.434;2023-06-14T11:56:20;99558.56;;;32.51;23.25
16664;BME280;8445;51.270;9.434;2023-06-14T11:58:46;99569.59;;;33.16;23.39
16664;BME280;8445;51.270;9.434;2023-06-14T12:01:17;99573.25;;;31.95;22.45
16664;BME280;8445;51.270;9.434;2023-06-14T12:03:54;99557.22;;;32.81;22.21
16664;BME280;8445;51.270;9.434;2023-06-14T12:06:29;99561.59;;;33.42;21.50
16664;BME280;8445;51.270;9.434;2023-06-14T12:08:58;99558.41;;;31.91;23.51
16664;BME280;8445;51.270;9.434;2023-06-14T12:11:23;99557.34;;;33.67;22.69
16664;BME280;8445;51.270;9.434;2023-06-14T12:13:49;99556.84;;;34.39;22.60
16664;BME280;8445;51.270;9.434;2023-06-14T12:16:15;99557.94;;;34.48;22.69
16664;BME280;8445;51.270;9.434;2023-06-14T12:18:40;99555.66;;;33.55;22.44
16664;BME280;8445;51.270;9.434;2023-06-14T12:21:09;99568.31;;;33.67;21.57
16664;BME280;8445;51.270;9.434;2023-06-14T12:23:39;99567.63;;;34.66;21.73
16664;BME280;8445;51.270;9.434;2023-06-14T12:26:05;99567.47;;;34.14;21.99
16664;BME280;8445;51.270;9.434;2023-06-14T12:28:31;99563.19;;;34.50;21.78
16664;BME280;8445;51.270;9.434;2023-06-14T12:30:57;99562.69;;;35.30;21.13
16664;BME280;8445;51.270;9.434;2023-06-14T12:33:24;99561.84;;;34.73;21.49
16664;BME280;8445;51.270;9.434;2023-06-14T12:35:50;99553.47;;;34.21;21.83
16664;BME280;8445;51.270;9.434;2023-06-14T12:38:16;99565.97;;;34.70;21.47
16664;BME280;8445;51.270;9.434;2023-06-14T12:40:42;99571.19;;;34.72;21.79
16664;BME280;8445;51.270;9.434;2023-06-14T12:43:07;99572.84;;;35.25;21.78
16664;BME280;8445;51.270;9.434;2023-06-14T12:45:33;99563.69;;;35.81;21.70
16664;BME280;8445;51.270;9.434;2023-06-14T12:47:58;99551.66;;;36.27;21.04
16664;BME280;8445;51.270;9.434;2023-06-14T12:50:24;99554.16;;;36.24;20.94
16664;BME280;8445;51.270;9.434;2023-06-14T12:52:49;99561.91;;;33.51;22.71
16664;BME280;8445;51.270;9.434;2023-06-14T12:55:15;99561.34;;;33.97;22.18
16664;BME280;8445;51.270;9.434;2023-06-14T12:57:41;99565.56;;;34.20;21.97
16664;BME280;8445;51.270;9.434;2023-06-14T13:00:07;99560.13;;;33.34;22.47
16664;BME280;8445;51.270;9.434;2023-06-14T13:02:33;99562.13;;;34.71;21.78
16664;BME280;8445;51.270;9.434;2023-06-14T13:04:58;99569.25;;;35.40;21.26
16664;BME280;8445;51.270;9.434;2023-06-14T13:07:24;99560.50;;;35.07;21.92
16664;BME280;8445;51.270;9.434;2023-06-14T13:09:50;99560.50;;;35.12;21.62
16664;BME280;8445;51.270;9.434;2023-06-14T13:12:15;99568.19;;;35.25;21.76
16664;BME280;8445;51.270;9.434;2023-06-14T13:14:41;99560.31;;;36.05;20.72
16664;BME280;8445;51.270;9.434;2023-06-14T13:17:08;99561.41;;;35.94;20.20
16664;BME280;8445;51.270;9.434;2023-06-14T13:19:34;99557.69;;;35.64;21.00